sensor_id;sensor_type;location;lat;lon;timestamp;pressure;altitude;pressure_sealevel;temperature;humidity
40285;BME280;25997;50.214;19.354;2023-08-12T00:00:54;98405.53;;;14.93;51.12
40285;BME280;25997;50.214;19.354;2023-08-12T00:03:57;98417.84;;;14.88;51.61
40285;BME280;25997;50.214;19.354;2023-08-12T00:06:59;98417.78;;;14.85;51.85
40285;BME280;25997;50.214;19.354;2023-08-12T00:10:04;98422.16;;;14.82;52.43
40285;BME280;25997;50.214;19.354;2023-08-12T00:13:07;98418.47;;;14.75;52.67
40285;BME280;25997;50.214;19.354;2023-08-12T00:16:09;98421.06;;;14.74;52.80
40285;BME280;25997;50.214;19.354;2023-08-12T00:19:12;98415.78;;;14.72;52.78
40285;BME280;25997;50.214;19.354;2023-08-12T00:22:14;98408.69;;;14.71;53.07
40285;BME280;25997;50.214;19.354;2023-08-12T00:25:18;98406.94;;;14.72;53.13
40285;BME280;25997;50.214;19.354;2023-08-12T00:28:21;98402.56;;;14.72;53.36
40285;BME280;25997;50.214;19.354;2023-08-12T00:31:24;98408.69;;;14.68;53.25
40285;BME280;25997;50.214;19.354;2023-08-12T00:34:26;98405.13;;;14.66;53.15
40285;BME280;25997;50.214;19.354;2023-08-12T00:37:29;98407.84;;;14.71;52.78
40285;BME280;25997;50.214;19.354;2023-08-12T00:40:32;98399.94;;;14.74;52.29
40285;BME280;25997;50.214;19.354;2023-08-12T00:43:35;98402.50;;;14.69;52.19
40285;BME280;25997;50.214;19.354;2023-08-12T00:46:38;98407.72;;;14.65;52.01
40285;BME280;25997;50.214;19.354;2023-08-12T00:49:41;98405.81;;;14.56;52.11
40285;BME280;25997;50.214;19.354;2023-08-12T00:52:46;98397.72;;;14.44;52.36
40285;BME280;25997;50.214;19.354;2023-08-12T00:55:50;98389.81;;;14.47;52.38
40285;BME280;25997;50.214;19.354;2023-08-12T00:58:53;98392.47;;;14.47;52.22
40285;BME280;25997;50.214;19.354;2023-08-12T01:01:56;98389.72;;;14.40;52.45
40285;BME280;25997;50.214;19.354;2023-08-12T01:04:58;98390.38;;;14.28;52.73
40285;BME280;25997;50.214;19.354;2023-08-12T01:08:00;98389.34;;;14.18;52.72
40285;BME280;25997;50.214;19.354;2023-08-12T01:11:20;98390.97;;;14.12;53.21
40285;BME280;25997;50.214;19.354;2023-08-12T01:14:30;98391.66;;;14.00;53.24
40285;BME280;25997;50.214;19.354;2023-08-12T01:17:37;98397.50;;;13.84;53.60
40285;BME280;25997;50.214;19.354;2023-08-12T01:20:40;98396.25;;;13.67;54.02
40285;BME280;25997;50.214;19.354;2023-08-12T01:23:45;98400.53;;;13.60;54.40
40285;BME280;25997;50.214;19.354;2023-08-12T01:26:47;98401.41;;;13.59;54.39
40285;BME280;25997;50.214;19.354;2023-08-12T01:29:51;98404.81;;;13.54;54.65
40285;BME280;25997;50.214;19.354;2023-08-12T01:33:00;98406.59;;;13.55;54.91
40285;BME280;25997;50.214;19.354;2023-08-12T01:36:12;98402.13;;;13.51;55.18
40285;BME280;25997;50.214;19.354;2023-08-12T01:39:19;98406.53;;;13.52;55.06
40285;BME280;25997;50.214;19.354;2023-08-12T01:42:23;98405.69;;;13.54;55.21
40285;BME280;25997;50.214;19.354;2023-08-12T01:45:26;98407.59;;;13.61;55.18
40285;BME280;25997;50.214;19.354;2023-08-12T01:48:28;98404.28;;;13.72;55.11
40285;BME280;25997;50.214;19.354;2023-08-12T01:51:31;98403.53;;;13.79;54.97
40285;BME280;25997;50.214;19.354;2023-08-12T01:54:35;98400.09;;;13.83;54.83
40285;BME280;25997;50.214;19.354;2023-08-12T01:57:37;98402.78;;;13.86;54.79
40285;BME280;25997;50.214;19.354;2023-08-12T02:00:40;98405.44;;;13.87;54.68
40285;BME280;25997;50.214;19.354;2023-08-12T02:03:42;98405.25;;;13.75;54.63
40285;BME280;25997;50.214;19.354;2023-08-12T02:06:45;98410.34;;;13.68;55.00
40285;BME280;25997;50.214;19.354;2023-08-12T02:09:49;98410.28;;;13.64;54.97
40285;BME280;25997;50.214;19.354;2023-08-12T02:12:51;98412.81;;;13.58;54.96
40285;BME280;25997;50.214;19.354;2023-08-12T02:15:54;98412.50;;;13.43;55.01
40285;BME280;25997;50.214;19.354;2023-08-12T02:18:57;98420.22;;;13.33;55.35
40285;BME280;25997;50.214;19.354;2023-08-12T02:22:00;98422.78;;;13.31;55.70
40285;BME280;25997;50.214;19.354;2023-08-12T02:25:06;98421.22;;;13.39;55.69
40285;BME280;25997;50.214;19.354;2023-08-12T02:28:09;98417.72;;;13.40;55.87
40285;BME280;25997;50.214;19.354;2023-08-12T02:31:11;98403.56;;;13.37;56.20
40285;BME280;25997;50.214;19.354;2023-08-12T02:34:14;98414.22;;;13.40;56.16
40285;BME280;25997;50.214;19.354;2023-08-12T02:37:16;98417.69;;;13.39;56.31
40285;BME280;25997;50.214;19.354;2023-08-12T02:40:20;98421.25;;;13.41;56.42
40285;BME280;25997;50.214;19.354;2023-08-12T02:43:22;98413.41;;;13.44;56.54
40285;BME280;25997;50.214;19.354;2023-08-12T02:46:25;98418.78;;;13.50;56.28
40285;BME280;25997;50.214;19.354;2023-08-12T02:49:27;98420.50;;;13.46;55.81
40285;BME280;25997;50.214;19.354;2023-08-12T02:52:30;98421.94;;;13.32;55.68
40285;BME280;25997;50.214;19.354;2023-08-12T02:55:34;98423.50;;;13.23;56.10
40285;BME280;25997;50.214;19.354;2023-08-12T02:58:37;98424.19;;;13.16;56.18
40285;BME280;25997;50.214;19.354;2023-08-12T03:01:42;98430.91;;;13.02;56.47
40285;BME280;25997;50.214;19.354;2023-08-12T03:04:44;98421.91;;;12.93;57.20
40285;BME280;25997;50.214;19.354;2023-08-12T03:07:47;98414.16;;;13.00;57.26
40285;BME280;25997;50.214;19.354;2023-08-12T03:10:58;98415.25;;;13.08;57.28
40285;BME280;25997;50.214;19.354;2023-08-12T03:14:00;98409.91;;;13.05;56.95
40285;BME280;25997;50.214;19.354;2023-08-12T03:17:03;98413.38;;;13.04;56.92
40285;BME280;25997;50.214;19.354;2023-08-12T03:20:08;98417.72;;;13.02;57.15
40285;BME280;25997;50.214;19.354;2023-08-12T03:23:11;98415.13;;;13.03;57.18
40285;BME280;25997;50.214;19.354;2023-08-12T03:26:16;98410.81;;;13.07;57.94
40285;BME280;25997;50.214;19.354;2023-08-12T03:29:19;98417.19;;;13.16;58.00
40285;BME280;25997;50.214;19.354;2023-08-12T03:32:23;98409.50;;;13.27;57.79
40285;BME280;25997;50.214;19.354;2023-08-12T03:35:26;98414.03;;;13.32;57.79
40285;BME280;25997;50.214;19.354;2023-08-12T03:38:29;98406.03;;;13.28;57.92
40285;BME280;25997;50.214;19.354;2023-08-12T03:41:33;98412.28;;;13.33;58.29
40285;BME280;25997;50.214;19.354;2023-08-12T03:44:39;98401.03;;;13.41;58.32
40285;BME280;25997;50.214;19.354;2023-08-12T03:47:42;98407.41;;;13.52;58.37
40285;BME280;25997;50.214;19.354;2023-08-12T03:50:45;98404.97;;;13.61;58.25
40285;BME280;25997;50.214;19.354;2023-08-12T03:53:48;98406.91;;;13.70;57.95
40285;BME280;25997;50.214;19.354;2023-08-12T03:56:52;98413.09;;;13.74;58.00
40285;BME280;25997;50.214;19.354;2023-08-12T03:59:55;98408.72;;;13.74;58.35
40285;BME280;25997;50.214;19.354;2023-08-12T04:02:58;98414.97;;;13.78;58.79
40285;BME280;25997;50.214;19.354;2023-08-12T04:06:00;98414.19;;;13.85;58.33
40285;BME280;25997;50.214;19.354;2023-08-12T04:09:04;98406.28;;;13.85;57.40
40285;BME280;25997;50.214;19.354;2023-08-12T04:12:08;98413.09;;;13.74;57.25
40285;BME280;25997;50.214;19.354;2023-08-12T04:15:10;98418.16;;;13.61;57.18
40285;BME280;25997;50.214;19.354;2023-08-12T04:18:13;98416.13;;;13.48;57.77
40285;BME280;25997;50.214;19.354;2023-08-12T04:21:16;98420.53;;;13.49;57.70
40285;BME280;25997;50.214;19.354;2023-08-12T04:24:18;98425.88;;;13.52;57.35
40285;BME280;25997;50.214;19.354;2023-08-12T04:27:23;98417.88;;;13.48;57.82
40285;BME280;25997;50.214;19.354;2023-08-12T04:30:26;98418.88;;;13.53;58.76
40285;BME280;25997;50.214;19.354;2023-08-12T04:33:29;98426.22;;;13.69;58.84
40285;BME280;25997;50.214;19.354;2023-08-12T04:36:33;98417.72;;;13.84;59.27
40285;BME280;25997;50.214;19.354;2023-08-12T04:39:37;98419.75;;;13.97;59.14
40285;BME280;25997;50.214;19.354;2023-08-12T04:42:43;98422.59;;;14.07;59.36
40285;BME280;25997;50.214;19.354;2023-08-12T04:45:47;98428.88;;;14.14;59.23
40285;BME280;25997;50.214;19.354;2023-08-12T04:48:52;98422.03;;;14.25;59.30
40285;BME280;25997;50.214;19.354;2023-08-12T04:51:54;98430.22;;;14.40;58.96
40285;BME280;25997;50.214;19.354;2023-08-12T04:54:57;98433.81;;;14.42;59.19
40285;BME280;25997;50.214;19.354;2023-08-12T04:58:02;98428.53;;;14.44;59.79
40285;BME280;25997;50.214;19.354;2023-08-12T05:01:05;98426.00;;;14.51;59.64
40285;BME280;25997;50.214;19.354;2023-08-12T05:04:08;98430.56;;;14.60;59.82
40285;BME280;25997;50.214;19.354;2023-08-12T05:07:11;98420.84;;;14.60;59.84
40285;BME280;25997;50.214;19.354;2023-08-12T05:10:14;98431.56;;;14.68;59.89
40285;BME280;25997;50.214;19.354;2023-08-12T05:13:18;98432.63;;;14.77;60.00
40285;BME280;25997;50.214;19.354;2023-08-12T05:16:20;98439.78;;;14.84;59.81
40285;BME280;25997;50.214;19.354;2023-08-12T05:19:23;98432.00;;;14.93;60.03
40285;BME280;25997;50.214;19.354;2023-08-12T05:22:25;98434.06;;;15.16;59.39
40285;BME280;25997;50.214;19.354;2023-08-12T05:25:27;98435.19;;;15.31;59.08
40285;BME280;25997;50.214;19.354;2023-08-12T05:28:31;98436.25;;;15.44;58.88
40285;BME280;25997;50.214;19.354;2023-08-12T05:31:34;98430.19;;;15.51;58.86
40285;BME280;25997;50.214;19.354;2023-08-12T05:34:36;98429.50;;;15.64;58.87
40285;BME280;25997;50.214;19.354;2023-08-12T05:37:38;98436.75;;;15.82;58.62
40285;BME280;25997;50.214;19.354;2023-08-12T05:40:41;98440.41;;;15.93;57.96
40285;BME280;25997;50.214;19.354;2023-08-12T05:43:45;98428.97;;;15.95;58.13
40285;BME280;25997;50.214;19.354;2023-08-12T05:46:47;98436.97;;;16.03;57.76
40285;BME280;25997;50.214;19.354;2023-08-12T05:49:50;98433.56;;;16.13;57.72
40285;BME280;25997;50.214;19.354;2023-08-12T05:52:52;98430.13;;;16.23;57.92
40285;BME280;25997;50.214;19.354;2023-08-12T05:55:55;98431.16;;;16.40;57.81
40285;BME280;25997;50.214;19.354;2023-08-12T05:58:58;98427.81;;;16.56;57.33
40285;BME280;25997;50.214;19.354;2023-08-12T06:02:01;98434.16;;;16.73;57.15
40285;BME280;25997;50.214;19.354;2023-08-12T06:05:05;98428.97;;;16.91;56.83
40285;BME280;25997;50.214;19.354;2023-08-12T06:08:08;98437.09;;;17.11;56.66
40285;BME280;25997;50.214;19.354;2023-08-12T06:11:10;98435.44;;;17.28;56.41
40285;BME280;25997;50.214;19.354;2023-08-12T06:14:14;98430.19;;;17.40;56.39
40285;BME280;25997;50.214;19.354;2023-08-12T06:17:16;98430.25;;;17.51;56.28
40285;BME280;25997;50.214;19.354;2023-08-12T06:20:19;98440.00;;;17.58;55.95
40285;BME280;25997;50.214;19.354;2023-08-12T06:23:21;98438.25;;;17.57;55.62
40285;BME280;25997;50.214;19.354;2023-08-12T06:26:24;98438.25;;;17.58;55.71
40285;BME280;25997;50.214;19.354;2023-08-12T06:29:27;98435.63;;;17.66;55.43
40285;BME280;25997;50.214;19.354;2023-08-12T06:32:30;98440.94;;;17.67;55.33
40285;BME280;25997;50.214;19.354;2023-08-12T06:35:32;98436.56;;;17.71;54.95
40285;BME280;25997;50.214;19.354;2023-08-12T06:38:35;98435.66;;;17.78;54.62
40285;BME280;25997;50.214;19.354;2023-08-12T06:41:37;98431.25;;;17.84;54.96
40285;BME280;25997;50.214;19.354;2023-08-12T06:44:41;98431.31;;;17.90;54.46
40285;BME280;25997;50.214;19.354;2023-08-12T06:47:44;98432.22;;;17.99;54.62
40285;BME280;25997;50.214;19.354;2023-08-12T06:50:53;98427.81;;;17.98;54.94
40285;BME280;25997;50.214;19.354;2023-08-12T06:53:55;98433.13;;;18.05;54.64
40285;BME280;25997;50.214;19.354;2023-08-12T06:56:58;98422.53;;;18.13;54.52
40285;BME280;25997;50.214;19.354;2023-08-12T07:00:02;98422.53;;;18.25;53.98
40285;BME280;25997;50.214;19.354;2023-08-12T07:03:04;98432.31;;;18.35;54.26
40285;BME280;25997;50.214;19.354;2023-08-12T07:06:07;98427.00;;;18.50;53.46
40285;BME280;25997;50.214;19.354;2023-08-12T07:09:09;98425.28;;;18.67;52.58
40285;BME280;25997;50.214;19.354;2023-08-12T07:12:12;98430.63;;;18.73;51.92
40285;BME280;25997;50.214;19.354;2023-08-12T07:15:16;98425.28;;;18.76;51.47
40285;BME280;25997;50.214;19.354;2023-08-12T07:18:18;98433.25;;;18.93;51.35
40285;BME280;25997;50.214;19.354;2023-08-12T07:21:21;98436.75;;;19.11;51.08
40285;BME280;25997;50.214;19.354;2023-08-12T07:24:23;98438.50;;;19.29;50.94
40285;BME280;25997;50.214;19.354;2023-08-12T07:27:26;98429.66;;;19.39;50.02
40285;BME280;25997;50.214;19.354;2023-08-12T07:30:30;98429.59;;;19.57;49.28
40285;BME280;25997;50.214;19.354;2023-08-12T07:33:33;98425.97;;;19.67;49.49
40285;BME280;25997;50.214;19.354;2023-08-12T07:36:36;98431.25;;;19.78;49.43
40285;BME280;25997;50.214;19.354;2023-08-12T07:39:38;98431.19;;;19.94;49.07
40285;BME280;25997;50.214;19.354;2023-08-12T07:42:41;98412.47;;;20.10;47.95
40285;BME280;25997;50.214;19.354;2023-08-12T07:45:45;98413.28;;;20.24;47.38
40285;BME280;25997;50.214;19.354;2023-08-12T07:48:47;98425.59;;;20.43;46.69
40285;BME280;25997;50.214;19.354;2023-08-12T07:51:50;98409.44;;;20.61;45.78
40285;BME280;25997;50.214;19.354;2023-08-12T07:54:52;98411.94;;;20.85;45.72
40285;BME280;25997;50.214;19.354;2023-08-12T07:57:54;98408.19;;;21.06;46.56
40285;BME280;25997;50.214;19.354;2023-08-12T08:00:58;98411.75;;;21.06;45.86
40285;BME280;25997;50.214;19.354;2023-08-12T08:04:01;98415.28;;;21.08;46.15
40285;BME280;25997;50.214;19.354;2023-08-12T08:07:03;98407.16;;;21.16;45.01
40285;BME280;25997;50.214;19.354;2023-08-12T08:10:06;98404.16;;;21.51;43.89
40285;BME280;25997;50.214;19.354;2023-08-12T08:13:09;98399.41;;;21.74;44.09
40285;BME280;25997;50.214;19.354;2023-08-12T08:16:13;98408.09;;;21.89;44.01
40285;BME280;25997;50.214;19.354;2023-08-12T08:19:15;98406.16;;;22.06;43.96
40285;BME280;25997;50.214;19.354;2023-08-12T08:22:18;98407.00;;;22.07;43.09
40285;BME280;25997;50.214;19.354;2023-08-12T08:25:20;98405.09;;;22.16;42.90
40285;BME280;25997;50.214;19.354;2023-08-12T08:28:23;98410.28;;;22.29;42.64
40285;BME280;25997;50.214;19.354;2023-08-12T08:31:27;98407.59;;;22.29;41.37
40285;BME280;25997;50.214;19.354;2023-08-12T08:34:29;98412.81;;;22.36;41.70
40285;BME280;25997;50.214;19.354;2023-08-12T08:37:32;98417.19;;;22.43;41.15
40285;BME280;25997;50.214;19.354;2023-08-12T08:40:35;98413.53;;;22.49;41.18
40285;BME280;25997;50.214;19.354;2023-08-12T08:43:40;98405.31;;;22.61;41.59
40285;BME280;25997;50.214;19.354;2023-08-12T08:46:46;98406.84;;;22.77;41.20
40285;BME280;25997;50.214;19.354;2023-08-12T08:49:49;98405.06;;;22.76;41.04
40285;BME280;25997;50.214;19.354;2023-08-12T08:52:52;98409.25;;;22.92;41.09
40285;BME280;25997;50.214;19.354;2023-08-12T08:55:55;98401.00;;;23.04;41.57
40285;BME280;25997;50.214;19.354;2023-08-12T08:58:58;98406.22;;;23.13;41.15
40285;BME280;25997;50.214;19.354;2023-08-12T09:02:02;98406.13;;;23.16;40.86
40285;BME280;25997;50.214;19.354;2023-08-12T09:05:06;98411.66;;;23.09;40.54
40285;BME280;25997;50.214;19.354;2023-08-12T09:08:09;98410.00;;;23.02;40.39
40285;BME280;25997;50.214;19.354;2023-08-12T09:11:12;98397.16;;;23.20;40.89
40285;BME280;25997;50.214;19.354;2023-08-12T09:14:15;98395.41;;;23.19;39.51
40285;BME280;25997;50.214;19.354;2023-08-12T09:17:19;98398.81;;;23.27;40.10
40285;BME280;25997;50.214;19.354;2023-08-12T09:20:22;98384.16;;;23.45;39.71
40285;BME280;25997;50.214;19.354;2023-08-12T09:23:26;98387.16;;;23.73;39.24
40285;BME280;25997;50.214;19.354;2023-08-12T09:26:28;98381.47;;;23.89;39.16
40285;BME280;25997;50.214;19.354;2023-08-12T09:29:31;98384.13;;;23.91;38.58
40285;BME280;25997;50.214;19.354;2023-08-12T09:32:36;98378.63;;;23.97;39.01
40285;BME280;25997;50.214;19.354;2023-08-12T09:35:40;98371.78;;;24.22;38.78
40285;BME280;25997;50.214;19.354;2023-08-12T09:38:43;98378.84;;;24.26;37.99
40285;BME280;25997;50.214;19.354;2023-08-12T09:41:46;98369.66;;;24.38;37.98
40285;BME280;25997;50.214;19.354;2023-08-12T09:44:48;98366.41;;;24.22;37.54
40285;BME280;25997;50.214;19.354;2023-08-12T09:47:52;98368.66;;;24.40;38.05
40285;BME280;25997;50.214;19.354;2023-08-12T09:50:55;98363.25;;;24.43;38.31
40285;BME280;25997;50.214;19.354;2023-08-12T09:53:58;98361.47;;;24.77;38.28
40285;BME280;25997;50.214;19.354;2023-08-12T09:57:02;98352.09;;;24.93;38.20
40285;BME280;25997;50.214;19.354;2023-08-12T10:00:06;98365.25;;;25.38;38.04
40285;BME280;25997;50.214;19.354;2023-08-12T10:03:16;98360.31;;;25.84;36.06
40285;BME280;25997;50.214;19.354;2023-08-12T10:06:20;98362.72;;;26.22;36.60
40285;BME280;25997;50.214;19.354;2023-08-12T10:09:23;98361.41;;;26.63;35.82
40285;BME280;25997;50.214;19.354;2023-08-12T10:12:27;98361.91;;;27.00;35.64
40285;BME280;25997;50.214;19.354;2023-08-12T10:15:29;98356.22;;;27.59;35.93
40285;BME280;25997;50.214;19.354;2023-08-12T10:18:34;98355.78;;;28.61;35.48
40285;BME280;25997;50.214;19.354;2023-08-12T10:21:38;98355.50;;;28.90;34.15
40285;BME280;25997;50.214;19.354;2023-08-12T10:24:42;98347.75;;;28.81;33.29
40285;BME280;25997;50.214;19.354;2023-08-12T10:27:46;98345.59;;;28.69;33.32
40285;BME280;25997;50.214;19.354;2023-08-12T10:30:49;98345.94;;;29.23;33.02
40285;BME280;25997;50.214;19.354;2023-08-12T10:33:53;98337.78;;;29.03;32.10
40285;BME280;25997;50.214;19.354;2023-08-12T10:36:56;98336.03;;;28.60;32.53
40285;BME280;25997;50.214;19.354;2023-08-12T10:40:03;98340.66;;;28.35;32.52
40285;BME280;25997;50.214;19.354;2023-08-12T10:43:08;98335.78;;;28.44;33.38
40285;BME280;25997;50.214;19.354;2023-08-12T10:46:21;98337.28;;;29.15;32.29
40285;BME280;25997;50.214;19.354;2023-08-12T10:49:25;98339.44;;;29.86;32.18
40285;BME280;25997;50.214;19.354;2023-08-12T10:52:28;98346.22;;;30.33;32.69
40285;BME280;25997;50.214;19.354;2023-08-12T10:55:31;98353.91;;;30.42;31.81
40285;BME280;25997;50.214;19.354;2023-08-12T10:58:44;98335.16;;;30.19;30.88
40285;BME280;25997;50.214;19.354;2023-08-12T11:01:47;98346.84;;;30.01;31.71
40285;BME280;25997;50.214;19.354;2023-08-12T11:04:54;98342.56;;;30.51;31.19
40285;BME280;25997;50.214;19.354;2023-08-12T11:07:58;98338.69;;;30.76;30.83
40285;BME280;25997;50.214;19.354;2023-08-12T11:11:02;98324.84;;;30.63;30.29
40285;BME280;25997;50.214;19.354;2023-08-12T11:14:13;98328.59;;;31.13;30.02
40285;BME280;25997;50.214;19.354;2023-08-12T11:17:16;98332.97;;;31.33;29.90
40285;BME280;25997;50.214;19.354;2023-08-12T11:20:21;98333.88;;;30.81;29.66
40285;BME280;25997;50.214;19.354;2023-08-12T11:23:23;98331.13;;;31.33;30.05
40285;BME280;25997;50.214;19.354;2023-08-12T11:26:26;98322.28;;;31.80;29.99
40285;BME280;25997;50.214;19.354;2023-08-12T11:29:28;98320.22;;;32.16;29.80
40285;BME280;25997;50.214;19.354;2023-08-12T11:32:31;98319.97;;;31.72;28.47
40285;BME280;25997;50.214;19.354;2023-08-12T11:35:36;98308.41;;;31.69;28.90
40285;BME280;25997;50.214;19.354;2023-08-12T11:38:40;98311.50;;;31.11;28.30
40285;BME280;25997;50.214;19.354;2023-08-12T11:41:44;98309.88;;;30.90;28.65
40285;BME280;25997;50.214;19.354;2023-08-12T11:44:47;98300.47;;;30.44;28.91
40285;BME280;25997;50.214;19.354;2023-08-12T11:47:50;98304.03;;;30.63;28.91
40285;BME280;25997;50.214;19.354;2023-08-12T11:50:56;98297.50;;;30.68;28.71
40285;BME280;25997;50.214;19.354;2023-08-12T11:53:59;98283.38;;;31.29;28.63
40285;BME280;25997;50.214;19.354;2023-08-12T11:57:02;98294.84;;;31.84;28.19
40285;BME280;25997;50.214;19.354;2023-08-12T12:00:07;98280.25;;;31.70;27.81
40285;BME280;25997;50.214;19.354;2023-08-12T12:03:16;98284.22;;;31.64;27.61
40285;BME280;25997;50.214;19.354;2023-08-12T12:06:29;98275.94;;;31.98;27.71
40285;BME280;25997;50.214;19.354;2023-08-12T12:09:32;98278.38;;;32.50;26.80
40285;BME280;25997;50.214;19.354;2023-08-12T12:12:35;98277.31;;;31.90;27.59
40285;BME280;25997;50.214;19.354;2023-08-12T12:15:39;98270.84;;;32.39;27.64
40285;BME280;25997;50.214;19.354;2023-08-12T12:18:43;98274.63;;;33.56;27.09
40285;BME280;25997;50.214;19.354;2023-08-12T12:21:48;98273.16;;;33.78;26.49
40285;BME280;25997;50.214;19.354;2023-08-12T12:24:51;98268.88;;;33.60;25.87
40285;BME280;25997;50.214;19.354;2023-08-12T12:27:53;98262.19;;;33.80;26.35
40285;BME280;25997;50.214;19.354;2023-08-12T12:30:56;98269.66;;;33.48;26.36
40285;BME280;25997;50.214;19.354;2023-08-12T12:33:59;98256.16;;;33.17;26.77
40285;BME280;25997;50.214;19.354;2023-08-12T12:37:02;98249.75;;;33.18;26.29
40285;BME280;25997;50.214;19.354;2023-08-12T12:40:06;98254.00;;;32.78;26.34
40285;BME280;25997;50.214;19.354;2023-08-12T12:43:09;98243.75;;;32.67;26.36
40285;BME280;25997;50.214;19.354;2023-08-12T12:46:11;98246.81;;;32.77;26.58
40285;BME280;25997;50.214;19.354;2023-08-12T12:49:14;98241.16;;;32.96;26.74
40285;BME280;25997;50.214;19.354;2023-08-12T12:52:18;98242.59;;;33.59;26.56
40285;BME280;25997;50.214;19.354;2023-08-12T12:55:21;98242.19;;;34.34;26.21
40285;BME280;25997;50.214;19.354;2023-08-12T12:58:23;98237.00;;;34.17;25.16
40285;BME280;25997;50.214;19.354;2023-08-12T13:01:26;98231.75;;;34.00;25.37
40285;BME280;25997;50.214;19.354;2023-08-12T13:04:28;98232.88;;;34.10;24.62
40285;BME280;25997;50.214;19.354;2023-08-12T13:07:32;98240.09;;;34.11;24.58
40285;BME280;25997;50.214;19.354;2023-08-12T13:10:35;98225.91;;;34.20;24.48
40285;BME280;25997;50.214;19.354;2023-08-12T13:13:37;98230.13;;;34.77;24.26
40285;BME280;25997;50.214;19.354;2023-08-12T13:16:40;98232.63;;;34.41;23.99
40285;BME280;25997;50.214;19.354;2023-08-12T13:19:42;98225.72;;;33.95;24.00
40285;BME280;25997;50.214;19.354;2023-08-12T13:22:46;98222.47;;;34.70;24.03
40285;BME280;25997;50.214;19.354;2023-08-12T13:25:48;98224.75;;;35.53;23.92
40285;BME280;25997;50.214;19.354;2023-08-12T13:28:51;98215.00;;;35.36;23.35
40285;BME280;25997;50.214;19.354;2023-08-12T13:31:53;98219.41;;;35.26;23.42
40285;BME280;25997;50.214;19.354;2023-08-12T13:34:56;98217.16;;;34.54;23.44
40285;BME280;25997;50.214;19.354;2023-08-12T13:38:00;98211.16;;;34.23;23.98
40285;BME280;25997;50.214;19.354;2023-08-12T13:41:02;98212.94;;;34.63;23.53
40285;BME280;25997;50.214;19.354;2023-08-12T13:44:05;98210.75;;;35.20;23.22
40285;BME280;25997;50.214;19.354;2023-08-12T13:47:07;98208.38;;;36.02;23.02
40285;BME280;25997;50.214;19.354;2023-08-12T13:50:10;98211.56;;;36.56;22.44
40285;BME280;25997;50.214;19.354;2023-08-12T13:53:14;98210.31;;;36.36;22.09
40285;BME280;25997;50.214;19.354;2023-08-12T13:56:16;98214.47;;;36.42;22.39
40285;BME280;25997;50.214;19.354;2023-08-12T13:59:18;98198.41;;;35.65;22.49
40285;BME280;25997;50.214;19.354;2023-08-12T14:02:21;98193.94;;;35.26;23.20
40285;BME280;25997;50.214;19.354;2023-08-12T14:05:24;98192.84;;;35.28;22.62
40285;BME280;25997;50.214;19.354;2023-08-12T14:08:27;98187.03;;;35.58;23.35
40285;BME280;25997;50.214;19.354;2023-08-12T14:11:30;98187.59;;;35.50;22.66
40285;BME280;25997;50.214;19.354;2023-08-12T14:14:32;98175.78;;;35.12;22.85
40285;BME280;25997;50.214;19.354;2023-08-12T14:17:35;98179.38;;;35.38;22.27
40285;BME280;25997;50.214;19.354;2023-08-12T14:20:38;98171.50;;;35.21;22.84
40285;BME280;25997;50.214;19.354;2023-08-12T14:23:42;98172.03;;;35.64;23.04
40285;BME280;25997;50.214;19.354;2023-08-12T14:26:44;98174.34;;;35.32;22.28
40285;BME280;25997;50.214;19.354;2023-08-12T14:29:47;98168.75;;;35.71;22.40
40285;BME280;25997;50.214;19.354;2023-08-12T14:32:49;98167.81;;;35.96;22.15
40285;BME280;25997;50.214;19.354;2023-08-12T14:35:52;98167.97;;;36.53;22.20
40285;BME280;25997;50.214;19.354;2023-08-12T14:38:56;98170.25;;;37.05;21.45
40285;BME280;25997;50.214;19.354;2023-08-12T14:41:59;98162.19;;;37.25;21.25
40285;BME280;25997;50.214;19.354;2023-08-12T14:45:01;98164.47;;;37.09;21.60
40285;BME280;25997;50.214;19.354;2023-08-12T14:48:05;98159.47;;;37.25;21.56
40285;BME280;25997;50.214;19.354;2023-08-12T14:51:07;98159.91;;;36.97;21.45
40285;BME280;25997;50.214;19.354;2023-08-12T14:54:11;98148.09;;;36.62;21.25
40285;BME280;25997;50.214;19.354;2023-08-12T14:57:14;98152.88;;;36.47;21.43
40285;BME280;25997;50.214;19.354;2023-08-12T15:00:16;98144.22;;;36.06;22.15
40285;BME280;25997;50.214;19.354;2023-08-12T15:03:19;98147.50;;;35.13;23.35
40285;BME280;25997;50.214;19.354;2023-08-12T15:06:21;98139.47;;;34.85;23.35
40285;BME280;25997;50.214;19.354;2023-08-12T15:09:25;98136.53;;;34.88;23.16
40285;BME280;25997;50.214;19.354;2023-08-12T15:12:28;98129.53;;;35.34;22.89
40285;BME280;25997;50.214;19.354;2023-08-12T15:15:31;98133.88;;;35.98;22.77
40285;BME280;25997;50.214;19.354;2023-08-12T15:18:34;98126.94;;;36.05;22.12
40285;BME280;25997;50.214;19.354;2023-08-12T15:21:36;98127.47;;;36.10;22.30
40285;BME280;25997;50.214;19.354;2023-08-12T15:24:40;98121.38;;;36.07;21.81
40285;BME280;25997;50.214;19.354;2023-08-12T15:27:43;98120.88;;;35.89;22.50
40285;BME280;25997;50.214;19.354;2023-08-12T15:30:47;98123.78;;;35.75;22.44
40285;BME280;25997;50.214;19.354;2023-08-12T15:33:51;98119.25;;;35.50;22.51
40285;BME280;25997;50.214;19.354;2023-08-12T15:36:53;98116.53;;;35.25;22.58
40285;BME280;25997;50.214;19.354;2023-08-12T15:39:57;98107.91;;;35.31;22.75
40285;BME280;25997;50.214;19.354;2023-08-12T15:43:00;98111.53;;;35.68;23.08
40285;BME280;25997;50.214;19.354;2023-08-12T15:46:02;98112.28;;;35.46;22.72
40285;BME280;25997;50.214;19.354;2023-08-12T15:49:05;98112.91;;;35.50;22.36
40285;BME280;25997;50.214;19.354;2023-08-12T15:52:11;98107.19;;;35.66;22.59
40285;BME280;25997;50.214;19.354;2023-08-12T15:55:15;98102.13;;;35.72;22.38
40285;BME280;25997;50.214;19.354;2023-08-12T15:58:18;98097.75;;;35.70;22.52